Terminal Aerodrome Forecast
Issued by NWS Louisville, KY

Home | Current Version | Previous Version | Text Only | Print | Product List | Glossary On
Versions: 1 2 3 4 5 6 7 8 9 10 11 12 13 14 15 16 17 18 19
398
FTUS43 KLMK 210530
TAFBWG
TAF
KBWG 210530Z 2106/2206 15003KT P6SM SCT250
     FM211500 18007KT P6SM BKN180
     FM211700 17008KT P6SM VCSH FEW040 OVC120
     FM212300 14004KT 5SM -SHRA OVC025=

USA.gov is the U.S. government's official web portal to all federal, state and local government web resources and services.